createdAt,value
2022-09-30T00:01:24.651Z,87.30
2022-09-30T00:03:55.997Z,87.10
2022-09-30T00:06:24.562Z,87.50
2022-09-30T00:08:51.606Z,87.20
2022-09-30T00:11:21.860Z,88.20
2022-09-30T00:13:51.380Z,88.50
2022-09-30T00:16:19.462Z,89.70
2022-09-30T00:18:46.467Z,89.70
2022-09-30T00:21:16.061Z,90.00
2022-09-30T00:23:44.489Z,90.10
2022-09-30T00:26:17.038Z,90.30
2022-09-30T00:28:46.249Z,90.30
2022-09-30T00:31:15.727Z,90.60
2022-09-30T00:33:43.945Z,91.00
2022-09-30T00:36:11.385Z,90.90
2022-09-30T00:38:38.218Z,91.10
2022-09-30T00:41:05.152Z,91.20
2022-09-30T00:43:46.741Z,91.20
2022-09-30T00:46:44.280Z,91.30
2022-09-30T00:49:21.069Z,91.40
2022-09-30T00:51:53.506Z,91.50
2022-09-30T00:54:25.803Z,91.30
2022-09-30T00:56:57.463Z,91.40
2022-09-30T00:59:35.055Z,91.40
2022-09-30T01:02:02.493Z,91.50
2022-09-30T01:04:32.739Z,91.10
2022-09-30T01:07:05.411Z,91.00
2022-09-30T01:09:34.545Z,91.10
2022-09-30T01:12:06.163Z,90.90
2022-09-30T01:14:33.416Z,91.40
2022-09-30T01:17:10.810Z,91.50
2022-09-30T01:20:03.452Z,91.60
2022-09-30T01:22:45.034Z,91.10
2022-09-30T01:25:17.439Z,91.00
2022-09-30T01:28:02.373Z,91.20
2022-09-30T01:31:06.946Z,90.90
2022-09-30T01:33:56.155Z,90.90
2022-09-30T01:36:44.474Z,91.10
2022-09-30T01:39:20.025Z,91.20
2022-09-30T01:42:18.631Z,91.50
2022-09-30T01:45:03.274Z,91.40
2022-09-30T01:47:36.986Z,92.00
2022-09-30T01:50:19.623Z,92.40
2022-09-30T01:52:57.695Z,92.30
2022-09-30T01:55:46.376Z,92.30
2022-09-30T01:58:33.094Z,92.30
2022-09-30T02:01:06.261Z,92.10
2022-09-30T02:03:41.112Z,92.00
2022-09-30T02:06:11.613Z,92.10
2022-09-30T02:08:41.864Z,92.10
2022-09-30T02:11:25.283Z,91.90
2022-09-30T02:14:30.905Z,92.00
2022-09-30T02:17:15.031Z,91.90
2022-09-30T02:19:49.831Z,91.60
2022-09-30T02:22:21.808Z,91.50
2022-09-30T02:24:53.412Z,91.80
2022-09-30T02:27:25.232Z,91.90
2022-09-30T02:29:57.129Z,91.50
2022-09-30T02:32:35.809Z,91.30
2022-09-30T02:35:11.827Z,91.20
2022-09-30T02:37:43.806Z,91.10
2022-09-30T02:40:24.043Z,90.70
2022-09-30T02:42:50.934Z,90.70
2022-09-30T02:45:22.043Z,90.90
2022-09-30T02:47:56.261Z,91.00
2022-09-30T02:50:33.623Z,91.20
2022-09-30T02:53:18.908Z,91.50
2022-09-30T02:56:09.012Z,91.70
2022-09-30T02:58:39.560Z,91.70
2022-09-30T03:01:09.408Z,91.60
2022-09-30T03:03:41.941Z,91.70
2022-09-30T03:06:10.313Z,91.70
2022-09-30T03:08:37.107Z,91.90
2022-09-30T03:11:04.830Z,91.50
2022-09-30T03:13:49.549Z,91.60
2022-09-30T03:16:22.361Z,91.50
2022-09-30T03:19:00.075Z,91.00
2022-09-30T03:22:04.381Z,90.70
2022-09-30T03:24:54.795Z,90.80
2022-09-30T03:27:54.314Z,91.30
2022-09-30T03:30:26.996Z,91.90
2022-09-30T03:33:20.522Z,91.80
2022-09-30T03:35:47.419Z,91.70
2022-09-30T03:38:34.084Z,91.30
2022-09-30T03:41:31.935Z,91.80
2022-09-30T03:44:05.680Z,91.80
2022-09-30T03:46:42.161Z,90.80
2022-09-30T03:49:13.363Z,90.50
2022-09-30T03:51:41.625Z,90.20
2022-09-30T03:54:12.783Z,89.90
2022-09-30T03:56:43.441Z,89.20
2022-09-30T03:59:25.085Z,88.60
2022-09-30T04:01:52.694Z,88.10
2022-09-30T04:04:19.559Z,87.30
2022-09-30T04:06:47.116Z,88.00
2022-09-30T04:09:14.297Z,87.90
2022-09-30T04:11:41.134Z,87.70
2022-09-30T04:14:07.902Z,88.00
2022-09-30T04:16:34.794Z,88.20
2022-09-30T04:19:01.895Z,87.90
2022-09-30T04:21:28.978Z,88.00
2022-09-30T04:23:56.424Z,88.00
2022-09-30T04:26:23.115Z,88.10
2022-09-30T04:28:50.444Z,88.80
2022-09-30T04:31:19.441Z,89.50
2022-09-30T04:33:46.260Z,90.40
2022-09-30T04:36:13.017Z,90.90
2022-09-30T04:38:39.770Z,91.00
2022-09-30T04:41:07.348Z,90.70
2022-09-30T04:43:34.520Z,90.30
2022-09-30T04:46:01.703Z,90.70
2022-09-30T04:48:31.349Z,90.90
2022-09-30T04:51:00.069Z,91.30
2022-09-30T04:53:27.207Z,91.60
2022-09-30T04:56:02.337Z,91.50
2022-09-30T04:58:34.710Z,91.30
2022-09-30T05:01:09.168Z,91.40
2022-09-30T05:03:36.626Z,91.60
2022-09-30T05:06:04.296Z,91.50
2022-09-30T05:08:33.797Z,91.70
2022-09-30T05:11:09.648Z,91.70
2022-09-30T05:13:38.851Z,91.80
2022-09-30T05:16:07.258Z,91.90
2022-09-30T05:18:35.537Z,91.90
2022-09-30T05:21:03.161Z,91.90
2022-09-30T05:23:31.966Z,92.10
2022-09-30T05:26:00.008Z,91.90
2022-09-30T05:28:27.252Z,91.60
2022-09-30T05:31:02.794Z,91.80
2022-09-30T05:33:30.381Z,92.40
2022-09-30T05:36:00.956Z,92.40
2022-09-30T05:38:29.596Z,92.50
2022-09-30T05:41:07.463Z,92.40
2022-09-30T05:43:34.906Z,92.20
2022-09-30T05:46:01.711Z,92.20
2022-09-30T05:48:28.461Z,92.60
2022-09-30T05:50:57.543Z,93.20
2022-09-30T05:53:24.639Z,93.30
2022-09-30T05:55:51.681Z,93.50
2022-09-30T05:58:19.022Z,93.40
2022-09-30T06:00:47.549Z,92.90
2022-09-30T06:03:15.895Z,93.00
2022-09-30T06:05:42.973Z,93.90
2022-09-30T06:08:10.532Z,94.00
2022-09-30T06:10:40.005Z,93.90
2022-09-30T06:13:07.591Z,93.70
2022-09-30T06:15:38.942Z,93.70
2022-09-30T06:18:06.141Z,93.80
2022-09-30T06:20:33.118Z,94.30
2022-09-30T06:23:04.078Z,94.40
2022-09-30T06:25:31.668Z,94.60
2022-09-30T06:27:58.506Z,94.40
2022-09-30T06:30:25.407Z,93.80
2022-09-30T06:32:54.030Z,93.90
2022-09-30T06:35:22.108Z,93.60
2022-09-30T06:37:51.759Z,94.00
2022-09-30T06:40:21.201Z,94.10
2022-09-30T06:42:49.401Z,94.40
2022-09-30T06:45:30.445Z,93.90
2022-09-30T06:48:04.523Z,93.70
2022-09-30T06:50:32.985Z,92.90
2022-09-30T06:53:06.303Z,92.60
2022-09-30T06:55:36.568Z,92.70
2022-09-30T06:58:03.344Z,92.60
2022-09-30T07:00:30.150Z,92.30
2022-09-30T07:02:56.970Z,92.30
2022-09-30T07:05:25.766Z,92.40
2022-09-30T07:07:53.547Z,92.00
2022-09-30T07:10:20.964Z,91.60
2022-09-30T07:12:54.227Z,91.80
2022-09-30T07:15:23.302Z,90.90
2022-09-30T07:17:54.031Z,90.50
2022-09-30T07:20:20.808Z,91.00
2022-09-30T07:22:47.683Z,90.30
2022-09-30T07:25:15.712Z,89.20
2022-09-30T07:27:42.516Z,90.00
2022-09-30T07:30:15.156Z,89.00
2022-09-30T07:32:48.087Z,89.90
2022-09-30T07:35:14.891Z,89.60
2022-09-30T07:37:41.690Z,89.30
2022-09-30T07:40:09.540Z,87.60
2022-09-30T07:42:45.833Z,87.80
2022-09-30T07:45:19.339Z,87.00
2022-09-30T07:47:49.816Z,86.20
2022-09-30T07:50:20.112Z,84.70
2022-09-30T07:52:46.908Z,83.80
2022-09-30T07:55:13.618Z,82.50
2022-09-30T07:57:40.360Z,82.20
2022-09-30T08:00:29.723Z,80.30
2022-09-30T08:02:54.452Z,79.90
2022-09-30T08:05:21.169Z,80.00
2022-09-30T08:07:47.889Z,79.40
2022-09-30T08:10:14.734Z,79.60
2022-09-30T08:12:41.459Z,79.00
2022-09-30T08:15:09.737Z,79.60
2022-09-30T08:17:36.440Z,80.40
2022-09-30T08:20:03.447Z,80.10
2022-09-30T08:22:30.185Z,78.70
2022-09-30T08:24:56.898Z,77.30
2022-09-30T08:27:23.650Z,74.60
2022-09-30T08:29:55.144Z,73.50
2022-09-30T08:32:22.111Z,73.10
2022-09-30T08:34:48.815Z,70.70
2022-09-30T08:37:15.504Z,72.30
2022-09-30T08:39:43.468Z,73.20
2022-09-30T08:42:37.962Z,74.00
2022-09-30T08:45:28.671Z,74.70
2022-09-30T08:48:01.459Z,72.60
2022-09-30T08:50:40.525Z,71.00
2022-09-30T08:53:21.608Z,69.80
2022-09-30T08:55:48.466Z,69.40
2022-09-30T08:58:29.054Z,69.40
2022-09-30T09:01:04.859Z,67.90
2022-09-30T09:03:34.220Z,66.70
2022-09-30T09:06:31.014Z,67.10
2022-09-30T09:09:03.741Z,64.90
2022-09-30T09:12:00.831Z,65.40
2022-09-30T09:14:53.151Z,65.80
2022-09-30T09:17:39.242Z,64.60
2022-09-30T09:20:30.811Z,64.70
2022-09-30T09:22:57.531Z,66.50
2022-09-30T09:25:28.139Z,67.10
2022-09-30T09:28:00.303Z,67.40
2022-09-30T09:30:33.546Z,68.10
2022-09-30T09:33:19.827Z,67.40
2022-09-30T09:36:00.117Z,67.10
2022-09-30T09:39:16.550Z,65.80
2022-09-30T09:42:12.104Z,65.40
2022-09-30T09:44:41.815Z,65.40
2022-09-30T09:47:14.262Z,65.00
2022-09-30T09:49:52.719Z,66.40
2022-09-30T09:52:30.791Z,67.30
2022-09-30T09:54:57.710Z,67.40
2022-09-30T09:57:33.876Z,67.70
2022-09-30T10:00:29.390Z,67.30
2022-09-30T10:03:28.392Z,66.90
2022-09-30T10:06:09.046Z,66.60
2022-09-30T10:08:52.070Z,64.80
2022-09-30T10:11:23.002Z,64.80
2022-09-30T10:13:51.181Z,63.20
2022-09-30T10:16:30.404Z,62.30
2022-09-30T10:18:57.961Z,62.60
2022-09-30T10:21:27.218Z,62.70
2022-09-30T10:23:54.657Z,62.90
2022-09-30T10:26:24.334Z,62.90
2022-09-30T10:28:57.548Z,61.90
2022-09-30T10:31:29.445Z,62.80
2022-09-30T10:34:15.529Z,61.60
2022-09-30T10:36:44.629Z,60.80
2022-09-30T10:39:24.642Z,58.60
2022-09-30T10:42:07.373Z,56.40
2022-09-30T10:44:44.016Z,56.80
2022-09-30T10:47:15.996Z,56.80
2022-09-30T10:49:50.214Z,58.00
2022-09-30T10:52:27.491Z,58.80
2022-09-30T10:54:59.475Z,58.60
2022-09-30T10:57:29.894Z,58.90
2022-09-30T11:00:09.282Z,59.10
2022-09-30T11:03:02.193Z,58.30
2022-09-30T11:05:38.237Z,58.00
2022-09-30T11:08:10.649Z,57.60
2022-09-30T11:11:14.227Z,57.20
2022-09-30T11:14:04.237Z,55.50
2022-09-30T11:16:37.218Z,55.90
2022-09-30T11:19:22.797Z,54.80
2022-09-30T11:21:53.679Z,55.90
2022-09-30T11:24:29.938Z,53.60
2022-09-30T11:27:35.303Z,53.10
2022-09-30T11:30:20.828Z,52.70
2022-09-30T11:33:23.501Z,51.80
2022-09-30T11:36:02.013Z,48.90
2022-09-30T11:38:56.176Z,50.50
2022-09-30T11:41:31.071Z,50.20
2022-09-30T11:44:34.647Z,49.70
2022-09-30T11:47:19.368Z,48.60
2022-09-30T11:49:57.796Z,48.00
2022-09-30T11:53:10.975Z,48.90
2022-09-30T11:56:02.460Z,48.80
2022-09-30T11:59:02.422Z,49.20
2022-09-30T12:01:38.499Z,49.00
2022-09-30T12:04:20.157Z,49.50
2022-09-30T12:06:56.077Z,48.70
2022-09-30T12:09:27.366Z,47.00
2022-09-30T12:12:00.187Z,47.00
2022-09-30T12:14:39.062Z,47.50
2022-09-30T12:17:13.099Z,47.20
2022-09-30T12:19:48.236Z,46.90
2022-09-30T12:22:21.012Z,48.10
2022-09-30T12:24:47.859Z,48.20
2022-09-30T12:27:24.264Z,48.30
2022-09-30T12:30:20.472Z,47.20
2022-09-30T12:33:19.779Z,47.70
2022-09-30T12:36:06.748Z,48.70
2022-09-30T12:38:58.122Z,48.20
2022-09-30T12:42:03.757Z,47.60
2022-09-30T12:44:36.013Z,46.30
2022-09-30T12:47:14.357Z,46.70
2022-09-30T12:49:43.384Z,46.00
2022-09-30T12:52:19.248Z,46.00
2022-09-30T12:55:00.313Z,45.10
2022-09-30T12:57:31.272Z,46.20
2022-09-30T13:00:03.990Z,46.30
2022-09-30T13:02:36.174Z,46.70
2022-09-30T13:05:32.085Z,47.40
2022-09-30T13:08:04.713Z,47.60
2022-09-30T13:10:33.169Z,47.10
2022-09-30T13:13:33.813Z,47.20
2022-09-30T13:16:06.525Z,46.40
2022-09-30T13:18:33.404Z,47.80
2022-09-30T13:21:06.709Z,46.80
2022-09-30T13:23:46.587Z,46.80
2022-09-30T13:26:32.567Z,47.60
2022-09-30T13:29:02.734Z,47.70
2022-09-30T13:31:32.195Z,47.20
2022-09-30T13:34:02.094Z,46.20
2022-09-30T13:36:32.178Z,45.90
2022-09-30T13:39:17.824Z,45.80
2022-09-30T13:41:48.402Z,45.00
2022-09-30T13:44:26.057Z,45.10
2022-09-30T13:46:56.581Z,44.50
2022-09-30T13:49:57.399Z,44.60
2022-09-30T13:52:32.651Z,43.90
2022-09-30T13:55:06.727Z,44.20
2022-09-30T13:58:00.992Z,44.30
2022-09-30T14:00:57.651Z,43.60
2022-09-30T14:03:42.681Z,44.00
2022-09-30T14:06:38.352Z,43.80
2022-09-30T14:09:12.953Z,44.30
2022-09-30T14:12:13.480Z,45.30
2022-09-30T14:14:40.233Z,45.40
2022-09-30T14:17:29.993Z,45.40
2022-09-30T14:20:30.628Z,45.40
2022-09-30T14:22:57.736Z,45.60
2022-09-30T14:25:24.763Z,44.80
2022-09-30T14:28:04.291Z,45.10
2022-09-30T14:30:41.584Z,45.60
2022-09-30T14:33:21.131Z,45.50
2022-09-30T14:35:51.212Z,45.40
2022-09-30T14:38:24.506Z,45.30
2022-09-30T14:40:53.046Z,45.80
2022-09-30T14:43:28.595Z,46.40
2022-09-30T14:48:31.869Z,48.30
2022-09-30T14:51:21.437Z,48.70
2022-09-30T14:54:02.233Z,49.30
2022-09-30T14:56:35.389Z,49.50
2022-09-30T14:59:26.873Z,48.50
2022-09-30T15:02:12.216Z,48.50
2022-09-30T15:04:46.819Z,48.00
2022-09-30T15:07:13.806Z,47.70
2022-09-30T15:09:43.843Z,48.80
2022-09-30T15:12:19.712Z,49.60
2022-09-30T15:14:48.704Z,49.60
2022-09-30T15:17:27.816Z,50.50
2022-09-30T15:19:56.483Z,50.50
2022-09-30T15:22:26.249Z,50.50
2022-09-30T15:24:54.177Z,50.60
2022-09-30T15:27:28.932Z,50.20
2022-09-30T15:29:57.219Z,50.00
2022-09-30T15:32:26.587Z,49.80
2022-09-30T15:34:54.330Z,49.80
2022-09-30T15:37:24.210Z,50.40
2022-09-30T15:40:10.071Z,50.50
2022-09-30T15:42:47.677Z,51.00
2022-09-30T15:45:19.773Z,51.60
2022-09-30T15:47:59.062Z,52.50
2022-09-30T15:50:38.890Z,52.80
2022-09-30T15:53:26.476Z,53.40
2022-09-30T15:55:55.769Z,53.70
2022-09-30T15:58:39.885Z,53.80
2022-09-30T16:01:23.307Z,54.00
2022-09-30T16:04:00.509Z,54.40
2022-09-30T16:06:51.792Z,54.70
2022-09-30T16:09:21.585Z,54.70
2022-09-30T16:12:05.291Z,55.10
2022-09-30T16:14:48.874Z,55.20
2022-09-30T16:17:29.277Z,55.60
2022-09-30T16:20:07.889Z,56.60
2022-09-30T16:22:34.563Z,57.00
2022-09-30T16:25:28.829Z,57.40
2022-09-30T16:28:09.896Z,58.60
2022-09-30T16:30:42.245Z,59.40
2022-09-30T16:33:11.068Z,60.10
2022-09-30T16:35:37.918Z,60.60
2022-09-30T16:38:06.925Z,61.10
2022-09-30T16:40:39.212Z,61.90
2022-09-30T16:43:07.747Z,62.20
2022-09-30T16:45:35.340Z,62.60
2022-09-30T16:48:02.591Z,62.10
2022-09-30T16:50:39.707Z,62.10
2022-09-30T16:53:06.601Z,61.60
2022-09-30T16:55:33.347Z,61.70
2022-09-30T16:58:00.211Z,61.70
2022-09-30T17:00:28.423Z,61.80
2022-09-30T17:02:55.508Z,61.50
2022-09-30T17:05:24.696Z,61.40
2022-09-30T17:07:55.283Z,61.00
2022-09-30T17:10:26.299Z,61.30
2022-09-30T17:12:53.522Z,61.50
2022-09-30T17:15:20.809Z,61.70
2022-09-30T17:17:48.123Z,61.30
2022-09-30T17:20:15.202Z,61.40
2022-09-30T17:22:42.166Z,62.00
2022-09-30T17:25:11.082Z,63.30
2022-09-30T17:27:38.471Z,64.60
2022-09-30T17:30:08.782Z,65.50
2022-09-30T17:32:36.414Z,65.50
2022-09-30T17:35:03.802Z,65.60
2022-09-30T17:37:30.923Z,65.40
2022-09-30T17:39:57.895Z,65.30
2022-09-30T17:42:43.220Z,65.00
2022-09-30T17:45:10.561Z,65.00
2022-09-30T17:47:39.616Z,65.10
2022-09-30T17:50:06.790Z,65.60
2022-09-30T17:52:34.376Z,66.40
2022-09-30T17:55:01.422Z,66.30
2022-09-30T17:57:28.400Z,66.40
2022-09-30T17:59:58.864Z,66.30
2022-09-30T18:02:25.749Z,65.10
2022-09-30T18:04:54.330Z,65.30
2022-09-30T18:07:22.849Z,65.20
2022-09-30T18:09:51.102Z,66.10
2022-09-30T18:12:17.815Z,66.50
2022-09-30T18:14:45.084Z,66.40
2022-09-30T18:17:11.819Z,65.90
2022-09-30T18:19:38.664Z,65.90
2022-09-30T18:22:05.398Z,66.30
2022-09-30T18:24:50.944Z,66.40
2022-09-30T18:27:17.774Z,66.30
2022-09-30T18:29:44.517Z,67.00
2022-09-30T18:32:11.284Z,67.10
2022-09-30T18:34:38.072Z,67.50
2022-09-30T18:37:06.659Z,68.50
2022-09-30T18:39:39.926Z,68.70
2022-09-30T18:42:06.653Z,69.10
2022-09-30T18:44:37.483Z,69.40
2022-09-30T18:47:05.194Z,69.60
2022-09-30T18:49:32.420Z,70.00
2022-09-30T18:51:59.737Z,69.90
2022-09-30T18:54:26.571Z,70.00
2022-09-30T18:56:53.413Z,69.90
2022-09-30T18:59:23.250Z,69.80
2022-09-30T19:01:51.032Z,69.70
2022-09-30T19:04:18.139Z,69.60
2022-09-30T19:06:47.504Z,69.40
2022-09-30T19:09:16.363Z,69.10
2022-09-30T19:11:43.952Z,69.30
2022-09-30T19:14:14.470Z,69.20
2022-09-30T19:16:41.934Z,69.10
2022-09-30T19:19:12.420Z,69.40
2022-09-30T19:21:39.643Z,69.30
2022-09-30T19:24:08.617Z,69.20
2022-09-30T19:26:37.337Z,69.30
2022-09-30T19:29:05.562Z,69.50
2022-09-30T19:31:34.211Z,69.80
2022-09-30T19:34:02.035Z,70.70
2022-09-30T19:36:31.517Z,70.70
2022-09-30T19:39:11.353Z,71.70
2022-09-30T19:41:39.388Z,72.00
2022-09-30T19:44:06.181Z,72.10
2022-09-30T19:46:33.036Z,71.50
2022-09-30T19:48:59.776Z,71.50
2022-09-30T19:51:29.133Z,71.90
2022-09-30T19:54:05.878Z,72.60
2022-09-30T19:56:34.359Z,73.10
2022-09-30T19:59:01.180Z,73.60
2022-09-30T20:01:29.379Z,74.70
2022-09-30T20:03:58.131Z,75.30
2022-09-30T20:06:27.528Z,75.90
2022-09-30T20:09:00.014Z,77.20
2022-09-30T20:11:29.756Z,77.40
2022-09-30T20:14:16.036Z,77.60
2022-09-30T20:16:46.788Z,77.70
2022-09-30T20:19:13.660Z,77.90
2022-09-30T20:21:43.801Z,78.70
2022-09-30T20:24:12.442Z,79.40
2022-09-30T20:26:40.227Z,79.80
2022-09-30T20:29:09.845Z,80.50
2022-09-30T20:31:38.571Z,81.80
2022-09-30T20:34:05.430Z,81.90
2022-09-30T20:36:32.855Z,81.90
2022-09-30T20:39:02.625Z,82.20
2022-09-30T20:41:35.704Z,82.00
2022-09-30T20:44:12.025Z,82.10
2022-09-30T20:46:41.717Z,82.20
2022-09-30T20:49:09.026Z,82.20
2022-09-30T20:51:36.143Z,82.30
2022-09-30T20:54:03.151Z,83.50
2022-09-30T20:56:49.637Z,84.20
2022-09-30T20:59:17.409Z,85.00
2022-09-30T21:01:44.376Z,85.00
2022-09-30T21:04:11.256Z,85.70
2022-09-30T21:06:37.952Z,86.30
2022-09-30T21:09:05.472Z,87.10
2022-09-30T21:11:32.980Z,87.30
2022-09-30T21:14:00.421Z,88.10
2022-09-30T21:16:27.261Z,87.60
2022-09-30T21:18:54.243Z,87.20
2022-09-30T21:21:24.693Z,87.20
2022-09-30T21:23:55.440Z,86.70
2022-09-30T21:26:22.241Z,87.10
2022-09-30T21:28:50.732Z,86.40
2022-09-30T21:31:20.780Z,86.70
2022-09-30T21:33:53.292Z,86.90
2022-09-30T21:36:21.392Z,86.70
2022-09-30T21:38:49.704Z,87.80
2022-09-30T21:41:17.378Z,87.20
2022-09-30T21:43:44.359Z,88.30
2022-09-30T21:46:13.577Z,88.10
2022-09-30T21:48:41.055Z,87.40
2022-09-30T21:51:09.579Z,87.70
2022-09-30T21:53:36.404Z,86.90
2022-09-30T21:56:04.384Z,86.80
2022-09-30T21:58:32.668Z,88.50
2022-09-30T22:01:02.056Z,89.50
2022-09-30T22:03:31.585Z,89.20
2022-09-30T22:06:00.531Z,89.30
2022-09-30T22:08:32.854Z,89.20
2022-09-30T22:10:59.563Z,88.60
2022-09-30T22:13:26.290Z,88.70
2022-09-30T22:16:02.232Z,88.90
2022-09-30T22:18:31.788Z,88.90
2022-09-30T22:21:03.966Z,88.50
2022-09-30T22:23:30.696Z,88.70
2022-09-30T22:25:58.393Z,88.50
2022-09-30T22:28:25.262Z,88.70
2022-09-30T22:30:52.064Z,89.00
2022-09-30T22:33:37.424Z,88.80
2022-09-30T22:36:22.950Z,89.20
2022-09-30T22:38:49.700Z,89.10
2022-09-30T22:41:17.653Z,89.90
2022-09-30T22:43:44.425Z,89.60
2022-09-30T22:46:11.222Z,89.70
2022-09-30T22:48:38.409Z,89.90
2022-09-30T22:51:05.303Z,88.40
2022-09-30T22:53:33.816Z,88.00
2022-09-30T22:56:03.896Z,86.90
2022-09-30T22:58:30.668Z,86.00
2022-09-30T23:00:58.908Z,85.20
2022-09-30T23:03:26.169Z,84.80
2022-09-30T23:05:59.184Z,85.00
2022-09-30T23:08:30.900Z,85.10
2022-09-30T23:10:57.941Z,85.40
2022-09-30T23:13:24.662Z,85.00
2022-09-30T23:15:58.218Z,85.10
2022-09-30T23:18:28.528Z,84.90
2022-09-30T23:21:11.077Z,84.60
2022-09-30T23:23:39.244Z,84.10
2022-09-30T23:26:10.119Z,83.60
2022-09-30T23:28:37.116Z,82.90
2022-09-30T23:31:09.867Z,82.40
2022-09-30T23:33:47.053Z,82.20
2022-09-30T23:36:16.428Z,82.70
2022-09-30T23:38:43.407Z,82.80
2022-09-30T23:41:10.531Z,82.70
2022-09-30T23:43:37.590Z,83.00
2022-09-30T23:46:08.661Z,83.60
2022-09-30T23:48:39.265Z,83.60
2022-09-30T23:51:07.003Z,84.60
2022-09-30T23:53:35.187Z,85.20
2022-09-30T23:56:04.890Z,86.70
2022-09-30T23:58:34.414Z,87.20
